createdAt,value
2019-03-05T08:48:54.549Z,45.28
2019-03-05T08:49:54.468Z,42.57
2019-03-05T08:50:54.470Z,42.77
2019-03-05T08:51:54.439Z,42.97
2019-03-05T08:52:54.418Z,42.60
2019-03-05T08:53:54.431Z,42.57
2019-03-05T08:54:54.396Z,40.09
2019-03-05T08:55:54.387Z,38.72
2019-03-05T08:56:54.373Z,40.95
2019-03-05T08:57:54.364Z,41.05
2019-03-05T08:58:54.386Z,41.23
2019-03-05T08:59:54.343Z,41.43
2019-03-05T09:00:54.340Z,40.71
2019-03-05T09:01:54.363Z,40.89
2019-03-05T09:02:54.314Z,40.69
2019-03-05T09:03:54.318Z,41.19
2019-03-05T09:04:54.286Z,41.29
2019-03-05T09:05:54.279Z,41.19
2019-03-05T09:06:54.264Z,41.89
2019-03-05T09:07:54.255Z,41.79
2019-03-05T09:08:54.262Z,41.19
2019-03-05T09:09:54.233Z,41.89
2019-03-05T09:10:54.219Z,41.99
2019-03-05T09:11:54.215Z,41.91
2019-03-05T09:12:54.209Z,42.02
2019-03-05T09:13:54.195Z,42.72
2019-03-05T09:14:54.178Z,42.72
2019-03-05T09:15:54.168Z,42.82
2019-03-05T09:16:54.179Z,42.32
2019-03-05T09:17:54.145Z,42.21
2019-03-05T09:18:54.153Z,42.41
2019-03-05T09:19:54.133Z,42.52
2019-03-05T09:20:54.110Z,42.11
2019-03-05T09:21:54.102Z,42.41
2019-03-05T09:22:54.096Z,42.32
2019-03-05T09:23:54.088Z,42.32
2019-03-05T09:24:54.096Z,42.32
2019-03-05T09:25:54.062Z,42.32
2019-03-05T09:26:54.044Z,42.32
2019-03-05T09:27:55.367Z,42.21
2019-03-05T09:28:54.023Z,43.02
2019-03-05T09:29:54.022Z,42.61
2019-03-05T09:30:54.014Z,42.72
2019-03-05T09:31:53.991Z,42.72
2019-03-05T09:32:53.979Z,42.72
2019-03-05T09:33:53.983Z,42.91
2019-03-05T09:34:53.971Z,42.80
2019-03-05T09:35:53.955Z,42.69
2019-03-05T09:36:53.940Z,42.30
2019-03-05T09:37:53.922Z,42.99
2019-03-05T09:38:53.911Z,42.49
2019-03-05T09:39:53.922Z,42.40
2019-03-05T09:40:53.891Z,42.47
2019-03-05T09:41:53.885Z,42.30
2019-03-05T09:42:53.869Z,42.49
2019-03-05T09:43:53.870Z,42.18
2019-03-05T09:44:53.866Z,42.27
2019-03-05T09:45:53.856Z,42.57
2019-03-05T09:46:53.877Z,42.57
2019-03-05T09:47:53.839Z,42.27
2019-03-05T09:48:53.803Z,42.07
2019-03-05T09:49:53.791Z,42.57
2019-03-05T09:50:53.785Z,42.27
2019-03-05T09:51:53.771Z,42.18
2019-03-05T09:52:55.216Z,42.47
2019-03-05T09:53:53.763Z,42.57
2019-03-05T09:54:53.754Z,42.77
2019-03-05T09:55:53.743Z,42.77
2019-03-05T09:56:53.717Z,42.68
2019-03-05T09:57:53.705Z,42.88
2019-03-05T09:58:53.698Z,42.97
2019-03-05T09:59:53.702Z,42.57
2019-03-05T10:00:53.682Z,42.18
2019-03-05T10:01:53.666Z,42.18
2019-03-05T10:02:53.650Z,43.08
2019-03-05T10:03:53.641Z,42.88
2019-03-05T10:04:53.630Z,42.68
2019-03-05T10:05:53.624Z,42.66
2019-03-05T10:06:53.604Z,42.85
2019-03-05T10:07:53.604Z,42.77
2019-03-05T10:08:53.591Z,42.77
2019-03-05T10:09:53.574Z,42.77
2019-03-05T10:10:53.572Z,42.97
2019-03-05T10:11:56.706Z,42.77
2019-03-05T10:12:53.546Z,42.77
2019-03-05T10:13:53.527Z,42.68
2019-03-05T10:14:53.518Z,42.68
2019-03-05T10:15:53.651Z,42.38
2019-03-05T10:16:53.505Z,42.38
2019-03-05T10:17:53.483Z,42.55
2019-03-05T10:18:53.474Z,42.97
2019-03-05T10:19:53.478Z,42.97
2019-03-05T10:20:53.469Z,43.27
2019-03-05T10:21:53.445Z,43.26
2019-03-05T10:22:53.434Z,42.77
2019-03-05T10:23:53.419Z,42.76
2019-03-05T10:24:53.412Z,42.68
2019-03-05T10:25:53.399Z,42.68
2019-03-05T10:26:53.389Z,42.68
2019-03-05T10:27:53.384Z,42.38
2019-03-05T10:28:53.373Z,42.69
2019-03-05T10:29:53.369Z,43.30
2019-03-05T10:30:53.343Z,42.69
2019-03-05T10:31:53.354Z,42.57
2019-03-05T10:32:53.322Z,43.10
2019-03-05T10:33:53.312Z,43.40
2019-03-05T10:34:53.314Z,43.60
2019-03-05T10:35:53.290Z,43.68
2019-03-05T10:36:53.289Z,43.70
2019-03-05T10:37:53.272Z,43.48
2019-03-05T10:38:57.212Z,43.48
2019-03-05T10:39:53.245Z,43.60
2019-03-05T10:40:53.234Z,43.08
2019-03-05T10:41:53.242Z,43.08
2019-03-05T10:42:53.228Z,43.58
2019-03-05T10:43:53.200Z,43.58
2019-03-05T10:44:53.188Z,43.50
2019-03-05T10:45:53.177Z,43.30
2019-03-05T10:46:55.218Z,43.40
2019-03-05T10:47:53.153Z,43.38
2019-03-05T10:48:53.153Z,43.38
2019-03-05T10:49:53.139Z,43.48
2019-03-05T10:50:53.138Z,43.48
2019-03-05T10:51:53.124Z,43.68
2019-03-05T10:52:53.103Z,43.77
2019-03-05T10:53:53.109Z,43.27
2019-03-05T10:54:53.083Z,43.77
2019-03-05T10:55:53.085Z,43.48
2019-03-05T10:56:53.070Z,43.48
2019-03-05T10:57:53.045Z,43.48
2019-03-05T10:58:53.091Z,43.58
2019-03-05T10:59:53.023Z,44.38
2019-03-05T11:00:53.011Z,43.68
2019-03-05T11:01:53.020Z,44.38
2019-03-05T11:02:52.997Z,43.98
2019-03-05T11:03:52.980Z,43.68
2019-03-05T11:04:52.971Z,43.88
2019-03-05T11:05:52.963Z,44.18
2019-03-05T11:06:52.949Z,44.18
2019-03-05T11:07:52.937Z,43.76
2019-03-05T11:08:52.929Z,43.27
2019-03-05T11:09:52.913Z,43.48
2019-03-05T11:10:52.922Z,42.77
2019-03-05T11:11:52.890Z,42.77
2019-03-05T11:12:52.905Z,42.68
2019-03-05T11:13:52.878Z,42.38
2019-03-05T11:14:52.863Z,42.57
2019-03-05T11:15:52.846Z,42.88
2019-03-05T11:16:52.841Z,42.38
2019-03-05T11:17:52.850Z,42.88
2019-03-05T11:18:52.815Z,43.16
2019-03-05T11:19:52.804Z,42.57
2019-03-05T11:20:52.796Z,43.18
2019-03-05T11:21:52.781Z,42.57
2019-03-05T11:22:52.785Z,42.77
2019-03-05T11:23:52.759Z,42.88
2019-03-05T11:24:52.751Z,42.77
2019-03-05T11:25:52.738Z,43.08
2019-03-05T11:26:52.726Z,42.57
2019-03-05T11:27:52.716Z,43.08
2019-03-05T11:28:54.726Z,43.18
2019-03-05T11:29:52.696Z,43.18
2019-03-05T11:30:52.689Z,42.55
2019-03-05T11:31:52.686Z,43.26
2019-03-05T11:32:52.665Z,42.88
2019-03-05T11:33:52.660Z,42.77
2019-03-05T11:34:52.637Z,43.26
2019-03-05T11:35:52.632Z,43.08
2019-03-05T11:36:52.630Z,42.77
2019-03-05T11:37:52.625Z,42.68
2019-03-05T11:38:52.617Z,43.58
2019-03-05T11:39:52.583Z,42.88
2019-03-05T11:40:52.573Z,42.88
2019-03-05T11:41:52.567Z,42.77
2019-03-05T11:42:52.555Z,43.68
2019-03-05T11:43:52.555Z,42.88
2019-03-05T11:45:06.720Z,43.48
2019-03-05T11:45:53.517Z,43.08
2019-03-05T11:46:52.521Z,42.88
2019-03-05T11:47:52.497Z,42.77
2019-03-05T11:48:52.499Z,43.08
2019-03-05T11:49:52.475Z,43.27
2019-03-05T11:50:52.482Z,43.58
2019-03-05T11:51:52.449Z,43.58
2019-03-05T11:52:52.440Z,43.68
2019-03-05T11:53:52.443Z,43.58
2019-03-05T11:54:52.417Z,43.48
2019-03-05T11:55:52.412Z,43.88
2019-03-05T11:56:52.395Z,43.58
2019-03-05T11:57:52.383Z,43.38
2019-03-05T11:58:52.393Z,43.48
2019-03-05T11:59:52.363Z,43.88
2019-03-05T12:00:52.354Z,43.77
2019-03-05T12:01:52.341Z,43.98
2019-03-05T12:02:52.331Z,43.68
2019-03-05T12:03:52.337Z,43.88
2019-03-05T12:04:52.323Z,44.10
2019-03-05T12:05:52.321Z,43.88
2019-03-05T12:06:52.294Z,43.70
2019-03-05T12:07:52.278Z,43.70
2019-03-05T12:08:52.274Z,43.88
2019-03-05T12:09:52.254Z,43.88
2019-03-05T12:10:52.253Z,44.00
2019-03-05T12:11:52.230Z,43.90
2019-03-05T12:12:52.219Z,43.98
2019-03-05T12:13:52.234Z,44.18
2019-03-05T12:14:52.202Z,44.30
2019-03-05T12:15:52.188Z,44.60
2019-03-05T12:16:52.187Z,44.30
2019-03-05T12:17:52.171Z,44.40
2019-03-05T12:18:52.163Z,44.58
2019-03-05T12:19:52.143Z,44.50
2019-03-05T12:20:52.139Z,44.40
2019-03-05T12:21:52.124Z,44.50
2019-03-05T12:22:52.111Z,44.20
2019-03-05T12:23:52.115Z,43.90
2019-03-05T12:24:52.094Z,44.50
2019-03-05T12:25:52.077Z,44.40
2019-03-05T12:26:52.071Z,44.40
2019-03-05T12:27:52.060Z,44.40
2019-03-05T12:28:52.070Z,44.60
2019-03-05T12:29:52.036Z,43.90
2019-03-05T12:30:52.027Z,43.60
2019-03-05T12:31:52.010Z,43.90
2019-03-05T12:32:52.013Z,44.30
2019-03-05T12:33:52.002Z,44.20
2019-03-05T12:34:51.987Z,44.40
2019-03-05T12:35:51.967Z,44.10
2019-03-05T12:36:51.959Z,44.40
2019-03-05T12:37:51.945Z,44.30
2019-03-05T12:38:51.940Z,44.50
2019-03-05T12:39:51.939Z,44.60
2019-03-05T12:40:51.911Z,44.10
2019-03-05T12:41:51.909Z,44.30
2019-03-05T12:42:51.900Z,44.10
2019-03-05T12:43:51.880Z,43.70
2019-03-05T12:44:51.885Z,44.10
2019-03-05T12:45:51.858Z,43.70
2019-03-05T12:46:51.845Z,43.90
2019-03-05T12:47:51.835Z,43.70
2019-03-05T12:48:51.823Z,44.00
2019-03-05T12:49:51.828Z,44.20
2019-03-05T12:50:51.816Z,43.90
2019-03-05T12:51:51.795Z,44.40
2019-03-05T12:52:51.781Z,43.80
2019-03-05T12:53:51.774Z,44.30
2019-03-05T12:54:51.769Z,43.80
2019-03-05T12:55:51.756Z,43.90
2019-03-05T12:56:51.749Z,43.90
2019-03-05T12:57:51.726Z,43.80
2019-03-05T12:58:51.719Z,43.60
2019-03-05T12:59:51.731Z,43.70
2019-03-05T13:00:51.696Z,43.50
2019-03-05T13:01:51.683Z,44.40
2019-03-05T13:02:51.683Z,44.30
2019-03-05T13:03:51.674Z,44.10
2019-03-05T13:04:51.678Z,44.60
2019-03-05T13:05:51.647Z,44.30
2019-03-05T13:06:51.628Z,44.50
2019-03-05T13:07:52.644Z,44.10
2019-03-05T13:08:51.606Z,44.20
2019-03-05T13:09:52.652Z,44.10
2019-03-05T13:10:51.585Z,43.90
2019-03-05T13:11:51.569Z,44.00
2019-03-05T13:12:51.559Z,44.60
2019-03-05T13:14:05.366Z,43.90
2019-03-05T13:14:52.539Z,44.10
2019-03-05T13:15:52.933Z,44.50
2019-03-05T13:16:51.521Z,44.20
2019-03-05T13:17:52.642Z,44.30
2019-03-05T13:18:51.494Z,44.50
2019-03-05T13:19:53.586Z,44.10
2019-03-05T13:20:51.484Z,43.90
2019-03-05T13:21:51.463Z,44.20
2019-03-05T13:22:51.449Z,43.90
2019-03-05T13:23:51.724Z,44.60
2019-03-05T13:24:51.451Z,45.08
2019-03-05T13:25:51.430Z,44.90
2019-03-05T13:26:51.408Z,44.60
2019-03-05T13:27:51.395Z,43.90
2019-03-05T13:28:51.391Z,45.20
2019-03-05T13:29:51.376Z,44.80
2019-03-05T13:30:51.377Z,44.90
2019-03-05T13:31:51.352Z,42.80
2019-03-05T13:32:53.988Z,43.40
2019-03-05T13:33:52.328Z,42.91
2019-03-05T13:34:51.324Z,42.91
2019-03-05T13:35:51.317Z,44.30
2019-03-05T13:36:51.766Z,44.30
2019-03-05T13:37:51.289Z,44.22
2019-03-05T13:38:51.290Z,44.10
2019-03-05T13:39:51.334Z,44.90
2019-03-05T13:40:51.273Z,44.20
2019-03-05T13:41:53.812Z,44.80
2019-03-05T13:42:51.231Z,44.60
2019-03-05T13:43:52.135Z,44.40
2019-03-05T13:44:51.209Z,44.68
2019-03-05T13:45:51.221Z,44.48
2019-03-05T13:46:51.196Z,44.28
2019-03-05T13:47:51.176Z,44.08
2019-03-05T13:48:58.270Z,44.78
2019-03-05T13:49:57.511Z,44.88
2019-03-05T13:50:52.435Z,44.28
2019-03-05T13:51:51.134Z,44.48
2019-03-05T13:52:51.132Z,44.98
2019-03-05T13:54:00.348Z,44.78
2019-03-05T13:54:52.101Z,44.26
2019-03-05T13:55:51.092Z,44.88
2019-03-05T13:56:51.108Z,45.16
2019-03-05T13:57:51.401Z,44.38
2019-03-05T13:58:51.058Z,44.46
2019-03-05T13:59:51.048Z,44.35
2019-03-05T14:00:51.072Z,42.55
2019-03-05T14:01:51.042Z,41.49
2019-03-05T14:02:53.068Z,42.40
2019-03-05T14:03:51.008Z,43.80
2019-03-05T14:04:50.994Z,44.10
2019-03-05T14:05:50.981Z,44.00
2019-03-05T14:06:50.986Z,43.98
2019-03-05T14:08:21.917Z,44.26
2019-03-05T14:09:21.934Z,44.26
2019-03-05T14:10:21.892Z,44.18
2019-03-05T14:11:21.890Z,44.48
2019-03-05T14:12:21.877Z,44.16
2019-03-05T14:13:23.653Z,44.28
2019-03-05T14:14:21.849Z,44.08
2019-03-05T14:15:21.837Z,44.38
2019-03-05T14:16:21.823Z,44.28
2019-03-05T14:17:21.858Z,43.98
2019-03-05T14:18:21.829Z,44.08
2019-03-05T14:19:21.794Z,44.78
2019-03-05T14:20:31.520Z,44.68
2019-03-05T14:21:22.777Z,44.88
2019-03-05T14:22:21.811Z,44.58
2019-03-05T14:23:21.768Z,44.38
2019-03-05T14:24:21.753Z,45.00
2019-03-05T14:25:21.761Z,44.28
2019-03-05T14:26:21.734Z,44.00
2019-03-05T14:27:21.716Z,43.68
2019-03-05T14:28:21.742Z,43.70
2019-03-05T14:29:21.691Z,43.50
2019-03-05T14:30:21.682Z,43.90
2019-03-05T14:31:21.664Z,44.20
2019-03-05T14:32:21.674Z,43.68
2019-03-05T14:33:21.721Z,43.88
2019-03-05T14:34:21.638Z,44.18
2019-03-05T14:35:21.640Z,44.28
2019-03-05T14:36:21.614Z,44.18
2019-03-05T14:37:21.598Z,44.38
2019-03-05T14:38:21.593Z,44.78
2019-03-05T14:39:21.584Z,43.88
2019-03-05T14:40:24.490Z,44.18
2019-03-05T14:41:21.554Z,43.88
2019-03-05T14:42:21.615Z,44.18
2019-03-05T14:43:21.566Z,43.85
2019-03-05T14:44:21.541Z,44.26
2019-03-05T14:45:21.511Z,44.06
2019-03-05T14:46:21.530Z,43.96
2019-03-05T14:47:21.492Z,43.66
2019-03-05T14:48:21.487Z,43.55
2019-03-05T14:49:21.497Z,44.28
2019-03-05T14:50:21.469Z,43.77
2019-03-05T14:51:21.441Z,44.06
2019-03-05T14:52:21.455Z,44.18
2019-03-05T14:53:21.448Z,44.28
2019-03-05T14:54:21.762Z,43.88
2019-03-05T14:55:21.428Z,43.88
2019-03-05T14:56:21.392Z,43.77
2019-03-05T14:57:21.410Z,43.48
2019-03-05T14:58:21.402Z,45.16
2019-03-05T14:59:21.364Z,43.58
2019-03-05T15:00:21.391Z,43.85
2019-03-05T15:01:21.332Z,43.58
2019-03-05T15:02:21.340Z,43.66
2019-03-05T15:03:21.322Z,43.35
2019-03-05T15:04:21.326Z,44.08
2019-03-05T15:05:21.304Z,43.55
2019-03-05T15:06:21.302Z,44.48
2019-03-05T15:07:21.264Z,44.26
2019-03-05T15:08:21.285Z,43.85
2019-03-05T15:09:21.282Z,44.08
2019-03-05T15:10:21.274Z,44.28
2019-03-05T15:11:21.219Z,44.18
2019-03-05T15:12:21.210Z,44.08
2019-03-05T15:13:21.239Z,44.08
2019-03-05T15:14:21.206Z,44.08
2019-03-05T15:15:21.192Z,44.08
2019-03-05T15:16:21.207Z,44.48
2019-03-05T15:17:21.153Z,44.20
2019-03-05T15:18:21.203Z,44.28
2019-03-05T15:19:21.898Z,44.48
2019-03-05T15:20:21.161Z,44.08
2019-03-05T15:21:21.114Z,43.88
2019-03-05T15:22:21.103Z,44.20
2019-03-05T15:23:21.127Z,43.90
2019-03-05T15:24:21.097Z,44.20
2019-03-05T15:25:21.084Z,43.90
2019-03-05T15:26:21.089Z,44.00
2019-03-05T15:27:21.063Z,44.00
2019-03-05T15:28:21.054Z,45.00
2019-03-05T15:29:21.049Z,44.00
2019-03-05T15:30:21.025Z,43.90
2019-03-05T15:31:21.046Z,44.20
2019-03-05T15:32:20.998Z,44.20
2019-03-05T15:33:20.985Z,44.18
2019-03-05T15:34:20.978Z,44.68
2019-03-05T15:35:20.994Z,44.78
2019-03-05T15:36:24.039Z,44.18
2019-03-05T15:37:20.942Z,44.38
2019-03-05T15:38:20.973Z,44.58
2019-03-05T15:39:20.968Z,44.38
2019-03-05T15:40:20.931Z,44.48
2019-03-05T15:41:20.938Z,44.28
2019-03-05T15:42:20.928Z,46.54
2019-03-05T15:43:20.876Z,48.42
2019-03-05T15:44:20.916Z,44.49
2019-03-05T15:45:20.856Z,44.82
2019-03-05T15:46:20.839Z,44.42
2019-03-05T15:47:20.845Z,44.04
2019-03-05T15:48:20.817Z,44.13
2019-03-05T15:49:20.816Z,44.16
2019-03-05T15:50:20.819Z,44.76
2019-03-05T15:51:20.826Z,45.06
2019-03-05T15:52:20.779Z,44.66
2019-03-05T15:53:20.797Z,44.98
2019-03-05T15:54:20.769Z,44.88
2019-03-05T15:55:20.768Z,44.28
2019-03-05T15:56:20.732Z,44.28
2019-03-05T15:57:26.067Z,44.08
2019-03-05T15:58:21.704Z,44.26
2019-03-05T15:59:20.715Z,44.46
2019-03-05T16:00:20.687Z,44.26
2019-03-05T16:01:22.579Z,44.46
2019-03-05T16:02:20.667Z,44.38
2019-03-05T16:03:20.652Z,44.35
2019-03-05T16:04:20.639Z,44.06
2019-03-05T16:05:20.975Z,43.98
2019-03-05T16:06:20.627Z,44.28
2019-03-05T16:07:20.609Z,44.06
2019-03-05T16:08:20.977Z,44.06
2019-03-05T16:09:20.582Z,44.35
2019-03-05T16:10:20.574Z,44.16
2019-03-05T16:11:20.561Z,44.06
2019-03-05T16:12:20.549Z,44.26
2019-03-05T16:13:20.747Z,43.88
2019-03-05T16:14:20.531Z,43.58
2019-03-05T16:15:20.550Z,43.88
2019-03-05T16:16:20.512Z,44.08
2019-03-05T16:17:20.520Z,44.58
2019-03-05T16:18:20.485Z,44.08
2019-03-05T16:19:20.474Z,44.28
2019-03-05T16:20:20.474Z,44.08
2019-03-05T16:21:20.468Z,44.16
2019-03-05T16:22:20.469Z,44.08
2019-03-05T16:23:20.433Z,44.58
2019-03-05T16:24:20.418Z,44.06
2019-03-05T16:25:22.201Z,44.35
2019-03-05T16:26:23.748Z,44.96
2019-03-05T16:27:20.398Z,43.85
2019-03-05T16:28:20.377Z,44.76
2019-03-05T16:29:20.963Z,44.06
2019-03-05T16:30:20.357Z,45.06
2019-03-05T16:31:21.827Z,44.26
2019-03-05T16:32:23.053Z,44.16
2019-03-05T16:33:23.708Z,44.18
2019-03-05T16:34:20.310Z,44.68
2019-03-05T16:35:20.300Z,44.38
2019-03-05T16:36:20.293Z,44.58
2019-03-05T16:38:10.727Z,44.24
2019-03-05T16:39:10.718Z,43.84
2019-03-05T16:40:10.702Z,44.04
2019-03-05T16:41:10.701Z,44.54
2019-03-05T16:42:10.681Z,44.26
2019-03-05T16:43:11.321Z,44.38
2019-03-05T16:44:10.666Z,43.98
2019-03-05T16:45:10.650Z,44.28
2019-03-05T16:46:10.653Z,43.98
2019-03-05T16:47:10.630Z,44.38
2019-03-05T16:48:10.616Z,44.08
2019-03-05T16:49:10.604Z,44.48
2019-03-05T16:50:10.594Z,44.38
2019-03-05T16:51:10.588Z,44.08
2019-03-05T16:52:10.577Z,44.20
2019-03-05T16:53:10.574Z,44.10
2019-03-05T16:54:10.549Z,44.20
2019-03-05T16:55:10.547Z,43.90
2019-03-05T16:56:10.530Z,43.90
2019-03-05T16:57:10.522Z,43.98
2019-03-05T16:58:10.531Z,44.00
2019-03-05T16:59:10.497Z,44.00
2019-03-05T17:00:10.495Z,43.90
2019-03-05T17:01:10.483Z,43.90
2019-03-05T17:02:10.468Z,44.28
2019-03-05T17:03:10.453Z,43.80
2019-03-05T17:04:10.449Z,44.20
2019-03-05T17:05:10.452Z,43.80
2019-03-05T17:06:10.426Z,44.20
2019-03-05T17:07:10.417Z,44.20
2019-03-05T17:08:10.399Z,43.80
2019-03-05T17:09:10.391Z,44.20
2019-03-05T17:10:10.379Z,44.20
2019-03-05T17:11:10.368Z,44.00
2019-03-05T17:12:10.366Z,44.30
2019-03-05T17:13:10.346Z,44.00
2019-03-05T17:14:10.340Z,44.10
2019-03-05T17:15:10.330Z,43.90
2019-03-05T17:16:10.313Z,44.20
2019-03-05T17:17:10.312Z,44.10
2019-03-05T17:18:10.292Z,44.10
2019-03-05T17:19:10.281Z,43.90
2019-03-05T17:20:10.291Z,44.10
2019-03-05T17:21:10.265Z,44.10
2019-03-05T17:22:10.273Z,44.10
2019-03-05T17:23:10.242Z,44.30
2019-03-05T17:24:10.227Z,44.30
2019-03-05T17:25:10.231Z,44.10
2019-03-05T17:26:10.211Z,44.10
2019-03-05T17:27:10.217Z,44.30
2019-03-05T17:28:10.183Z,44.10
2019-03-05T17:29:10.172Z,44.10
2019-03-05T17:30:10.160Z,43.90
2019-03-05T17:31:10.157Z,44.90
2019-03-05T17:32:10.143Z,44.90
2019-03-05T17:33:10.155Z,44.28
2019-03-05T17:34:10.118Z,44.08
2019-03-05T17:35:10.111Z,44.30
2019-03-05T17:36:10.097Z,44.40
2019-03-05T17:37:10.089Z,44.50
2019-03-05T17:38:10.118Z,44.30
2019-03-05T17:39:10.083Z,44.10
2019-03-05T17:40:10.055Z,44.40
2019-03-05T17:41:10.079Z,44.50
2019-03-05T17:42:10.045Z,44.10
2019-03-05T17:43:10.030Z,44.40
2019-03-05T17:44:10.017Z,44.50
2019-03-05T17:45:10.021Z,43.90
2019-03-05T17:46:09.998Z,44.10
2019-03-05T17:47:10.009Z,44.22
2019-03-05T17:48:09.979Z,44.12
2019-03-05T17:49:09.970Z,44.22
2019-03-05T17:50:09.954Z,44.12
2019-03-05T17:51:09.944Z,44.20
2019-03-05T17:52:09.929Z,44.12
2019-03-05T17:53:09.941Z,44.12
2019-03-05T17:54:09.921Z,44.32
2019-03-05T17:55:09.892Z,44.52
2019-03-05T17:56:09.887Z,44.12
2019-03-05T17:57:09.893Z,44.02
2019-03-05T17:58:09.879Z,44.12
2019-03-05T17:59:09.852Z,44.32
2019-03-05T18:00:09.844Z,44.22
2019-03-05T18:01:09.833Z,44.32
2019-03-05T18:02:09.825Z,44.32
2019-03-05T18:03:09.808Z,44.32
2019-03-05T18:04:09.812Z,44.12
2019-03-05T18:05:09.797Z,44.22
2019-03-05T18:06:09.778Z,44.32
2019-03-05T18:07:09.772Z,44.32
2019-03-05T18:08:09.775Z,44.22
2019-03-05T18:09:09.746Z,44.32
2019-03-05T18:10:09.735Z,43.92
2019-03-05T18:11:09.724Z,44.22
2019-03-05T18:12:09.717Z,43.92
2019-03-05T18:13:09.701Z,44.12
2019-03-05T18:14:09.691Z,44.12
2019-03-05T18:15:09.678Z,44.32
2019-03-05T18:16:09.665Z,44.32
2019-03-05T18:17:09.677Z,44.02
2019-03-05T18:18:09.652Z,44.02
2019-03-05T18:19:09.661Z,43.92
2019-03-05T18:20:09.645Z,44.32
2019-03-05T18:21:09.624Z,44.12
2019-03-05T18:22:09.598Z,44.32
2019-03-05T18:23:09.608Z,44.12
2019-03-05T18:24:09.611Z,44.12
2019-03-05T18:25:09.667Z,43.82
2019-03-05T18:26:09.585Z,44.12
2019-03-05T18:27:09.568Z,43.92
2019-03-05T18:28:09.535Z,44.32
2019-03-05T18:29:09.522Z,44.22
2019-03-05T18:30:09.514Z,44.42
2019-03-05T18:31:09.506Z,44.12
2019-03-05T18:32:09.490Z,44.10
2019-03-05T18:33:09.491Z,44.30
2019-03-05T18:34:09.476Z,44.30
2019-03-05T18:35:09.483Z,44.52
2019-03-05T18:36:09.452Z,44.22
2019-03-05T18:37:09.446Z,44.42
2019-03-05T18:38:09.435Z,44.32
2019-03-05T18:39:09.429Z,44.12
2019-03-05T18:40:09.408Z,44.22
2019-03-05T18:41:09.419Z,43.92
2019-03-05T18:42:09.379Z,44.22
2019-03-05T18:43:09.382Z,44.32
2019-03-05T18:44:09.394Z,44.22
2019-03-05T18:45:09.353Z,44.32
2019-03-05T18:46:09.342Z,44.52
2019-03-05T18:47:09.381Z,44.14
2019-03-05T18:48:09.316Z,44.34
2019-03-05T18:49:09.314Z,44.12
2019-03-05T18:50:09.331Z,44.32
2019-03-05T18:51:09.290Z,44.52
2019-03-05T18:52:09.285Z,44.12
2019-03-05T18:53:09.265Z,44.02
2019-03-05T18:54:09.264Z,44.54
2019-03-05T18:55:09.257Z,44.52
